sensor_id;sensor_type;location;lat;lon;timestamp;pressure;altitude;pressure_sealevel;temperature;humidity
18436;BME280;9346;52.006;4.720;2023-11-21T00:02:00;101002.81;;;8.51;100.00
18436;BME280;9346;52.006;4.720;2023-11-21T00:04:27;101012.94;;;8.51;100.00
18436;BME280;9346;52.006;4.720;2023-11-21T00:06:54;101001.97;;;8.51;100.00
18436;BME280;9346;52.006;4.720;2023-11-21T00:09:21;101011.03;;;8.51;100.00
18436;BME280;9346;52.006;4.720;2023-11-21T00:11:48;101009.94;;;8.52;100.00
18436;BME280;9346;52.006;4.720;2023-11-21T00:14:14;101013.53;;;8.53;100.00
18436;BME280;9346;52.006;4.720;2023-11-21T00:16:41;101014.59;;;8.52;100.00
18436;BME280;9346;52.006;4.720;2023-11-21T00:19:10;101013.78;;;8.51;100.00
18436;BME280;9346;52.006;4.720;2023-11-21T00:21:37;101011.56;;;8.48;100.00
18436;BME280;9346;52.006;4.720;2023-11-21T00:24:05;101014.28;;;8.48;100.00
18436;BME280;9346;52.006;4.720;2023-11-21T00:26:32;101015.94;;;8.49;100.00
18436;BME280;9346;52.006;4.720;2023-11-21T00:29:02;101017.34;;;8.52;100.00
18436;BME280;9346;52.006;4.720;2023-11-21T00:31:29;101022.31;;;8.55;100.00
18436;BME280;9346;52.006;4.720;2023-11-21T00:33:56;101011.94;;;8.57;100.00
18436;BME280;9346;52.006;4.720;2023-11-21T00:36:25;101018.81;;;8.59;100.00
18436;BME280;9346;52.006;4.720;2023-11-21T00:38:53;101023.78;;;8.62;100.00
18436;BME280;9346;52.006;4.720;2023-11-21T00:41:21;101022.19;;;8.66;100.00
18436;BME280;9346;52.006;4.720;2023-11-21T00:43:47;101027.41;;;8.68;100.00
18436;BME280;9346;52.006;4.720;2023-11-21T00:46:14;101026.09;;;8.70;100.00
18436;BME280;9346;52.006;4.720;2023-11-21T00:48:41;101029.97;;;8.74;100.00
18436;BME280;9346;52.006;4.720;2023-11-21T00:51:08;101025.63;;;8.78;100.00
18436;BME280;9346;52.006;4.720;2023-11-21T00:53:36;101022.63;;;8.80;100.00
18436;BME280;9346;52.006;4.720;2023-11-21T00:56:03;101035.53;;;8.79;100.00
18436;BME280;9346;52.006;4.720;2023-11-21T00:58:30;101030.31;;;8.78;100.00
18436;BME280;9346;52.006;4.720;2023-11-21T01:00:57;101028.38;;;8.78;100.00
18436;BME280;9346;52.006;4.720;2023-11-21T01:03:23;101030.06;;;8.79;100.00
18436;BME280;9346;52.006;4.720;2023-11-21T01:05:50;101028.94;;;8.80;100.00
18436;BME280;9346;52.006;4.720;2023-11-21T01:08:17;101039.44;;;8.83;100.00
18436;BME280;9346;52.006;4.720;2023-11-21T01:10:45;101041.91;;;8.85;100.00
18436;BME280;9346;52.006;4.720;2023-11-21T01:13:13;101038.31;;;8.84;100.00
18436;BME280;9346;52.006;4.720;2023-11-21T01:15:41;101034.75;;;8.84;100.00
18436;BME280;9346;52.006;4.720;2023-11-21T01:18:08;101042.16;;;8.83;100.00
18436;BME280;9346;52.006;4.720;2023-11-21T01:20:35;101040.25;;;8.84;100.00
18436;BME280;9346;52.006;4.720;2023-11-21T01:23:02;101047.66;;;8.83;100.00
18436;BME280;9346;52.006;4.720;2023-11-21T01:25:29;101061.16;;;8.85;100.00
18436;BME280;9346;52.006;4.720;2023-11-21T01:27:57;101070.78;;;8.87;100.00
18436;BME280;9346;52.006;4.720;2023-11-21T01:30:24;101073.84;;;8.91;100.00
18436;BME280;9346;52.006;4.720;2023-11-21T01:32:52;101072.78;;;8.97;100.00
18436;BME280;9346;52.006;4.720;2023-11-21T01:35:19;101073.63;;;8.97;100.00
18436;BME280;9346;52.006;4.720;2023-11-21T01:37:45;101081.63;;;8.99;100.00
18436;BME280;9346;52.006;4.720;2023-11-21T01:40:13;101077.78;;;9.00;100.00
18436;BME280;9346;52.006;4.720;2023-11-21T01:42:40;101081.09;;;9.02;100.00
18436;BME280;9346;52.006;4.720;2023-11-21T01:45:14;101086.41;;;9.08;100.00
18436;BME280;9346;52.006;4.720;2023-11-21T01:47:42;101089.16;;;9.08;100.00
18436;BME280;9346;52.006;4.720;2023-11-21T01:50:14;101094.66;;;9.08;100.00
18436;BME280;9346;52.006;4.720;2023-11-21T01:52:45;101094.91;;;9.07;100.00
18436;BME280;9346;52.006;4.720;2023-11-21T01:55:14;101099.56;;;9.06;100.00
18436;BME280;9346;52.006;4.720;2023-11-21T01:57:43;101103.16;;;9.07;100.00
18436;BME280;9346;52.006;4.720;2023-11-21T02:00:14;101102.06;;;9.08;100.00
18436;BME280;9346;52.006;4.720;2023-11-21T02:02:45;101105.66;;;9.08;100.00
18436;BME280;9346;52.006;4.720;2023-11-21T02:05:13;101108.41;;;9.08;100.00
18436;BME280;9346;52.006;4.720;2023-11-21T02:07:42;101107.31;;;9.09;100.00
18436;BME280;9346;52.006;4.720;2023-11-21T02:10:09;101104.03;;;9.13;100.00
18436;BME280;9346;52.006;4.720;2023-11-21T02:12:40;101107.34;;;9.14;100.00
18436;BME280;9346;52.006;4.720;2023-11-21T02:15:08;101107.09;;;9.16;100.00
18436;BME280;9346;52.006;4.720;2023-11-21T02:17:42;101103.81;;;9.19;100.00
18436;BME280;9346;52.006;4.720;2023-11-21T02:20:10;101115.97;;;9.23;100.00
18436;BME280;9346;52.006;4.720;2023-11-21T02:22:41;101111.88;;;9.26;100.00
18436;BME280;9346;52.006;4.720;2023-11-21T02:25:10;101112.41;;;9.28;100.00
18436;BME280;9346;52.006;4.720;2023-11-21T02:27:37;101119.59;;;9.29;100.00
18436;BME280;9346;52.006;4.720;2023-11-21T02:30:05;101110.84;;;9.32;100.00
18436;BME280;9346;52.006;4.720;2023-11-21T02:32:33;101110.31;;;9.35;100.00
18436;BME280;9346;52.006;4.720;2023-11-21T02:35:00;101117.22;;;9.37;100.00
18436;BME280;9346;52.006;4.720;2023-11-21T02:37:28;101110.34;;;9.40;100.00
18436;BME280;9346;52.006;4.720;2023-11-21T02:39:54;101120.00;;;9.42;100.00
18436;BME280;9346;52.006;4.720;2023-11-21T02:42:23;101124.16;;;9.45;100.00
18436;BME280;9346;52.006;4.720;2023-11-21T02:44:51;101132.16;;;9.46;100.00
18436;BME280;9346;52.006;4.720;2023-11-21T02:47:18;101123.66;;;9.48;100.00
18436;BME280;9346;52.006;4.720;2023-11-21T02:49:46;101125.88;;;9.51;100.00
18436;BME280;9346;52.006;4.720;2023-11-21T02:52:13;101129.19;;;9.53;100.00
18436;BME280;9346;52.006;4.720;2023-11-21T02:54:39;101120.41;;;9.56;100.00
18436;BME280;9346;52.006;4.720;2023-11-21T02:57:06;101124.81;;;9.57;100.00
18436;BME280;9346;52.006;4.720;2023-11-21T02:59:35;101125.41;;;9.59;100.00
18436;BME280;9346;52.006;4.720;2023-11-21T03:02:02;101126.78;;;9.61;100.00
18436;BME280;9346;52.006;4.720;2023-11-21T03:04:29;101128.47;;;9.62;100.00
18436;BME280;9346;52.006;4.720;2023-11-21T03:06:59;101129.28;;;9.63;100.00
18436;BME280;9346;52.006;4.720;2023-11-21T03:09:26;101125.47;;;9.64;100.00
18436;BME280;9346;52.006;4.720;2023-11-21T03:11:52;101128.50;;;9.67;100.00
18436;BME280;9346;52.006;4.720;2023-11-21T03:14:19;101132.63;;;9.70;100.00
18436;BME280;9346;52.006;4.720;2023-11-21T03:16:48;101138.47;;;9.73;100.00
18436;BME280;9346;52.006;4.720;2023-11-21T03:19:14;101145.09;;;9.77;100.00
18436;BME280;9346;52.006;4.720;2023-11-21T03:21:41;101142.66;;;9.81;100.00
18436;BME280;9346;52.006;4.720;2023-11-21T03:24:08;101141.28;;;9.83;100.00
18436;BME280;9346;52.006;4.720;2023-11-21T03:26:35;101133.88;;;9.84;100.00
18436;BME280;9346;52.006;4.720;2023-11-21T03:29:03;101135.53;;;9.85;100.00
18436;BME280;9346;52.006;4.720;2023-11-21T03:31:30;101131.94;;;9.84;100.00
18436;BME280;9346;52.006;4.720;2023-11-21T03:34:00;101147.38;;;9.85;100.00
18436;BME280;9346;52.006;4.720;2023-11-21T03:36:26;101148.75;;;9.88;100.00
18436;BME280;9346;52.006;4.720;2023-11-21T03:38:53;101153.16;;;9.89;100.00
18436;BME280;9346;52.006;4.720;2023-11-21T03:41:23;101149.34;;;9.90;100.00
18436;BME280;9346;52.006;4.720;2023-11-21T03:43:50;101151.25;;;9.89;100.00
18436;BME280;9346;52.006;4.720;2023-11-21T03:46:17;101154.00;;;9.89;100.00
18436;BME280;9346;52.006;4.720;2023-11-21T03:48:44;101160.09;;;9.91;100.00
18436;BME280;9346;52.006;4.720;2023-11-21T03:51:12;101165.88;;;9.95;100.00
18436;BME280;9346;52.006;4.720;2023-11-21T03:53:39;101165.63;;;9.96;100.00
18436;BME280;9346;52.006;4.720;2023-11-21T03:56:07;101165.34;;;9.98;100.00
18436;BME280;9346;52.006;4.720;2023-11-21T03:58:33;101175.25;;;9.99;100.00
18436;BME280;9346;52.006;4.720;2023-11-21T04:01:00;101180.75;;;9.99;100.00
18436;BME280;9346;52.006;4.720;2023-11-21T04:03:27;101179.97;;;9.98;100.00
18436;BME280;9346;52.006;4.720;2023-11-21T04:05:53;101187.97;;;10.00;100.00
18436;BME280;9346;52.006;4.720;2023-11-21T04:08:21;101183.25;;;10.00;100.00
18436;BME280;9346;52.006;4.720;2023-11-21T04:10:48;101187.97;;;10.00;100.00
18436;BME280;9346;52.006;4.720;2023-11-21T04:13:15;101190.69;;;10.00;100.00
18436;BME280;9346;52.006;4.720;2023-11-21T04:15:43;101191.78;;;9.99;100.00
18436;BME280;9346;52.006;4.720;2023-11-21T04:18:09;101198.97;;;10.00;100.00
18436;BME280;9346;52.006;4.720;2023-11-21T04:20:36;101197.03;;;10.00;100.00
18436;BME280;9346;52.006;4.720;2023-11-21T04:23:03;101205.28;;;10.00;100.00
18436;BME280;9346;52.006;4.720;2023-11-21T04:25:31;101210.53;;;10.02;100.00
18436;BME280;9346;52.006;4.720;2023-11-21T04:27:59;101210.25;;;10.03;100.00
18436;BME280;9346;52.006;4.720;2023-11-21T04:30:26;101222.47;;;10.07;100.00
18436;BME280;9346;52.006;4.720;2023-11-21T04:32:52;101222.19;;;10.09;100.00
18436;BME280;9346;52.006;4.720;2023-11-21T04:35:19;101220.25;;;10.09;100.00
18436;BME280;9346;52.006;4.720;2023-11-21T04:37:46;101226.34;;;10.11;100.00
18436;BME280;9346;52.006;4.720;2023-11-21T04:40:13;101229.09;;;10.11;100.00
18436;BME280;9346;52.006;4.720;2023-11-21T04:42:42;101226.88;;;10.13;100.00
18436;BME280;9346;52.006;4.720;2023-11-21T04:45:09;101228.06;;;10.17;100.00
18436;BME280;9346;52.006;4.720;2023-11-21T04:47:37;101231.09;;;10.21;100.00
18436;BME280;9346;52.006;4.720;2023-11-21T04:50:04;101231.16;;;10.26;100.00
18436;BME280;9346;52.006;4.720;2023-11-21T04:52:32;101235.28;;;10.28;100.00
18436;BME280;9346;52.006;4.720;2023-11-21T04:54:59;101241.94;;;10.32;100.00
18436;BME280;9346;52.006;4.720;2023-11-21T04:57:27;101252.16;;;10.37;100.00
18436;BME280;9346;52.006;4.720;2023-11-21T04:59:57;101248.06;;;10.39;100.00
18436;BME280;9346;52.006;4.720;2023-11-21T05:02:24;101267.09;;;10.41;100.00
18436;BME280;9346;52.006;4.720;2023-11-21T05:04:51;101265.72;;;10.43;100.00
18436;BME280;9346;52.006;4.720;2023-11-21T05:07:18;101275.38;;;10.46;100.00
18436;BME280;9346;52.006;4.720;2023-11-21T05:09:45;101275.09;;;10.47;100.00
18436;BME280;9346;52.006;4.720;2023-11-21T05:12:13;101260.22;;;10.48;100.00
18436;BME280;9346;52.006;4.720;2023-11-21T05:14:40;101267.16;;;10.51;100.00
18436;BME280;9346;52.006;4.720;2023-11-21T05:17:09;101263.88;;;10.54;100.00
18436;BME280;9346;52.006;4.720;2023-11-21T05:19:36;101266.06;;;10.57;100.00
18436;BME280;9346;52.006;4.720;2023-11-21T05:22:05;101272.44;;;10.57;100.00
18436;BME280;9346;52.006;4.720;2023-11-21T05:24:34;101277.41;;;10.60;100.00
18436;BME280;9346;52.006;4.720;2023-11-21T05:27:01;101276.31;;;10.61;100.00
18436;BME280;9346;52.006;4.720;2023-11-21T05:29:28;101287.31;;;10.61;100.00
18436;BME280;9346;52.006;4.720;2023-11-21T05:31:54;101282.66;;;10.62;100.00
18436;BME280;9346;52.006;4.720;2023-11-21T05:34:23;101288.75;;;10.64;100.00
18436;BME280;9346;52.006;4.720;2023-11-21T05:36:51;101297.00;;;10.64;100.00
18436;BME280;9346;52.006;4.720;2023-11-21T05:39:19;101298.66;;;10.65;100.00
18436;BME280;9346;52.006;4.720;2023-11-21T05:41:51;101292.06;;;10.66;100.00
18436;BME280;9346;52.006;4.720;2023-11-21T05:44:18;101293.16;;;10.65;100.00
18436;BME280;9346;52.006;4.720;2023-11-21T05:46:45;101292.91;;;10.66;100.00
18436;BME280;9346;52.006;4.720;2023-11-21T05:49:12;101305.81;;;10.66;100.00
18436;BME280;9346;52.006;4.720;2023-11-21T05:51:40;101308.56;;;10.66;100.00
18436;BME280;9346;52.006;4.720;2023-11-21T05:54:07;101314.09;;;10.66;100.00
18436;BME280;9346;52.006;4.720;2023-11-21T05:56:34;101321.53;;;10.65;100.00
18436;BME280;9346;52.006;4.720;2023-11-21T05:59:00;101327.88;;;10.66;100.00
18436;BME280;9346;52.006;4.720;2023-11-21T06:01:28;101330.63;;;10.66;100.00
18436;BME280;9346;52.006;4.720;2023-11-21T06:03:55;101336.13;;;10.66;100.00
18436;BME280;9346;52.006;4.720;2023-11-21T06:06:22;101330.94;;;10.69;100.00
18436;BME280;9346;52.006;4.720;2023-11-21T06:08:52;101333.44;;;10.71;100.00
18436;BME280;9346;52.006;4.720;2023-11-21T06:11:19;101354.09;;;10.73;100.00
18436;BME280;9346;52.006;4.720;2023-11-21T06:13:47;101345.56;;;10.75;100.00
18436;BME280;9346;52.006;4.720;2023-11-21T06:16:15;101351.66;;;10.77;100.00
18436;BME280;9346;52.006;4.720;2023-11-21T06:18:45;101353.91;;;10.80;100.00
18436;BME280;9346;52.006;4.720;2023-11-21T06:21:12;101355.56;;;10.81;100.00
18436;BME280;9346;52.006;4.720;2023-11-21T06:23:42;101365.22;;;10.83;100.00
18436;BME280;9346;52.006;4.720;2023-11-21T06:26:10;101358.34;;;10.86;100.00
18436;BME280;9346;52.006;4.720;2023-11-21T06:28:38;101358.91;;;10.88;100.00
18436;BME280;9346;52.006;4.720;2023-11-21T06:31:05;101360.56;;;10.89;100.00
18436;BME280;9346;52.006;4.720;2023-11-21T06:33:32;101359.50;;;10.90;100.00
18436;BME280;9346;52.006;4.720;2023-11-21T06:35:59;101359.50;;;10.90;100.00
18436;BME280;9346;52.006;4.720;2023-11-21T06:38:29;101365.56;;;10.92;100.00
18436;BME280;9346;52.006;4.720;2023-11-21T06:40:58;101355.09;;;10.94;100.00
18436;BME280;9346;52.006;4.720;2023-11-21T06:43:28;101372.47;;;10.94;100.00
18436;BME280;9346;52.006;4.720;2023-11-21T06:45:56;101379.91;;;10.94;100.00
18436;BME280;9346;52.006;4.720;2023-11-21T06:48:23;101377.16;;;10.94;100.00
18436;BME280;9346;52.006;4.720;2023-11-21T06:50:51;101381.81;;;10.93;100.00
18436;BME280;9346;52.006;4.720;2023-11-21T06:53:18;101393.69;;;10.94;100.00
18436;BME280;9346;52.006;4.720;2023-11-21T06:55:49;101395.34;;;10.95;100.00
18436;BME280;9346;52.006;4.720;2023-11-21T06:58:16;101403.63;;;10.95;100.00
18436;BME280;9346;52.006;4.720;2023-11-21T07:00:45;101406.09;;;10.96;100.00
18436;BME280;9346;52.006;4.720;2023-11-21T07:03:14;101404.19;;;10.97;100.00
18436;BME280;9346;52.006;4.720;2023-11-21T07:05:41;101414.13;;;10.98;100.00
18436;BME280;9346;52.006;4.720;2023-11-21T07:08:08;101414.69;;;11.00;100.00
18436;BME280;9346;52.006;4.720;2023-11-21T07:10:36;101420.22;;;11.00;100.00
18436;BME280;9346;52.006;4.720;2023-11-21T07:13:03;101423.78;;;11.00;100.00
18436;BME280;9346;52.006;4.720;2023-11-21T07:15:32;101424.06;;;10.99;100.00
18436;BME280;9346;52.006;4.720;2023-11-21T07:18:01;101431.22;;;11.00;100.00
18436;BME280;9346;52.006;4.720;2023-11-21T07:20:28;101428.47;;;11.00;100.00
18436;BME280;9346;52.006;4.720;2023-11-21T07:22:55;101433.16;;;10.99;100.00
18436;BME280;9346;52.006;4.720;2023-11-21T07:25:23;101435.91;;;10.99;100.00
18436;BME280;9346;52.006;4.720;2023-11-21T07:27:50;101432.88;;;11.01;100.00
18436;BME280;9346;52.006;4.720;2023-11-21T07:30:16;101445.03;;;11.00;100.00
18436;BME280;9346;52.006;4.720;2023-11-21T07:32:44;101443.06;;;11.00;100.00
18436;BME280;9346;52.006;4.720;2023-11-21T07:35:15;101453.84;;;11.02;100.00
18436;BME280;9346;52.006;4.720;2023-11-21T07:37:41;101454.41;;;11.04;100.00
18436;BME280;9346;52.006;4.720;2023-11-21T07:40:08;101459.66;;;11.05;100.00
18436;BME280;9346;52.006;4.720;2023-11-21T07:42:36;101468.78;;;11.06;100.00
18436;BME280;9346;52.006;4.720;2023-11-21T07:45:04;101462.44;;;11.05;100.00
18436;BME280;9346;52.006;4.720;2023-11-21T07:47:32;101468.78;;;11.06;100.00
18436;BME280;9346;52.006;4.720;2023-11-21T07:49:59;101478.72;;;11.07;100.00
18436;BME280;9346;52.006;4.720;2023-11-21T07:52:29;101478.72;;;11.07;100.00
18436;BME280;9346;52.006;4.720;2023-11-21T07:54:56;101480.09;;;11.09;100.00
18436;BME280;9346;52.006;4.720;2023-11-21T07:57:23;101482.84;;;11.09;100.00
18436;BME280;9346;52.006;4.720;2023-11-21T07:59:49;101487.03;;;11.12;100.00
18436;BME280;9346;52.006;4.720;2023-11-21T08:02:19;101490.59;;;11.12;100.00
18436;BME280;9346;52.006;4.720;2023-11-21T08:04:46;101499.47;;;11.14;100.00
18436;BME280;9346;52.006;4.720;2023-11-21T08:07:14;101501.94;;;11.16;100.00
18436;BME280;9346;52.006;4.720;2023-11-21T08:09:43;101503.59;;;11.17;100.00
18436;BME280;9346;52.006;4.720;2023-11-21T08:12:12;101509.44;;;11.20;100.00
18436;BME280;9346;52.006;4.720;2023-11-21T08:14:40;101511.63;;;11.18;100.00
18436;BME280;9346;52.006;4.720;2023-11-21T08:17:07;101515.22;;;11.19;100.00
18436;BME280;9346;52.006;4.720;2023-11-21T08:19:35;101514.13;;;11.20;100.00
18436;BME280;9346;52.006;4.720;2023-11-21T08:22:03;101516.88;;;11.20;100.00
18436;BME280;9346;52.006;4.720;2023-11-21T08:24:32;101529.56;;;11.21;100.00
18436;BME280;9346;52.006;4.720;2023-11-21T08:27:01;101528.50;;;11.22;100.00
18436;BME280;9346;52.006;4.720;2023-11-21T08:29:29;101535.66;;;11.23;100.00
18436;BME280;9346;52.006;4.720;2023-11-21T08:31:57;101527.97;;;11.25;100.00
18436;BME280;9346;52.006;4.720;2023-11-21T08:34:25;101541.50;;;11.26;100.00
18436;BME280;9346;52.006;4.720;2023-11-21T08:36:51;101531.00;;;11.28;100.00
18436;BME280;9346;52.006;4.720;2023-11-21T08:39:18;101535.16;;;11.31;100.00
18436;BME280;9346;52.006;4.720;2023-11-21T08:41:45;101533.81;;;11.33;100.00
18436;BME280;9346;52.006;4.720;2023-11-21T08:44:14;101541.00;;;11.34;100.00
18436;BME280;9346;52.006;4.720;2023-11-21T08:46:43;101549.84;;;11.37;100.00
18436;BME280;9346;52.006;4.720;2023-11-21T08:49:16;101557.03;;;11.38;100.00
18436;BME280;9346;52.006;4.720;2023-11-21T08:51:44;101558.69;;;11.38;100.00
18436;BME280;9346;52.006;4.720;2023-11-21T08:54:11;101552.63;;;11.42;100.00
18436;BME280;9346;52.006;4.720;2023-11-21T08:56:38;101550.72;;;11.42;100.00
18436;BME280;9346;52.006;4.720;2023-11-21T08:59:05;101549.34;;;11.45;100.00
18436;BME280;9346;52.006;4.720;2023-11-21T09:01:34;101552.69;;;11.47;100.00
18436;BME280;9346;52.006;4.720;2023-11-21T09:04:01;101558.50;;;11.50;100.00
18436;BME280;9346;52.006;4.720;2023-11-21T09:06:28;101569.00;;;11.53;100.00
18436;BME280;9346;52.006;4.720;2023-11-21T09:08:55;101571.78;;;11.53;100.00
18436;BME280;9346;52.006;4.720;2023-11-21T09:11:21;101573.19;;;11.56;100.00
18436;BME280;9346;52.006;4.720;2023-11-21T09:13:49;101581.75;;;11.59;100.00
18436;BME280;9346;52.006;4.720;2023-11-21T09:16:16;101590.03;;;11.59;100.00
18436;BME280;9346;52.006;4.720;2023-11-21T09:18:45;101599.97;;;11.60;100.00
18436;BME280;9346;52.006;4.720;2023-11-21T09:21:12;101597.81;;;11.62;100.00
18436;BME280;9346;52.006;4.720;2023-11-21T09:23:38;101598.41;;;11.64;100.00
18436;BME280;9346;52.006;4.720;2023-11-21T09:26:05;101605.59;;;11.65;100.00
18436;BME280;9346;52.006;4.720;2023-11-21T09:28:32;101606.69;;;11.64;100.00
18436;BME280;9346;52.006;4.720;2023-11-21T09:31:00;101610.25;;;11.65;100.00
18436;BME280;9346;52.006;4.720;2023-11-21T09:33:28;101613.03;;;11.65;100.00
18436;BME280;9346;52.006;4.720;2023-11-21T09:35:58;101618.00;;;11.68;100.00
18436;BME280;9346;52.006;4.720;2023-11-21T09:38:25;101622.41;;;11.64;100.00
18436;BME280;9346;52.006;4.720;2023-11-21T09:40:54;101625.41;;;11.62;100.00
18436;BME280;9346;52.006;4.720;2023-11-21T09:43:38;101635.09;;;11.65;100.00
18436;BME280;9346;52.006;4.720;2023-11-21T09:46:06;101643.91;;;11.62;100.00
18436;BME280;9346;52.006;4.720;2023-11-21T09:48:39;101638.31;;;11.57;100.00
18436;BME280;9346;52.006;4.720;2023-11-21T09:51:08;101647.44;;;11.57;100.00
18436;BME280;9346;52.006;4.720;2023-11-21T09:53:35;101652.63;;;11.54;100.00
18436;BME280;9346;52.006;4.720;2023-11-21T09:56:04;101665.91;;;11.57;100.00
18436;BME280;9346;52.006;4.720;2023-11-21T09:58:31;101666.16;;;11.55;100.00
18436;BME280;9346;52.006;4.720;2023-11-21T10:01:01;101664.00;;;11.57;100.00
18436;BME280;9346;52.006;4.720;2023-11-21T10:03:35;101677.25;;;11.60;100.00
18436;BME280;9346;52.006;4.720;2023-11-21T10:06:02;101673.94;;;11.58;100.00
18436;BME280;9346;52.006;4.720;2023-11-21T10:08:34;101678.34;;;11.59;100.00
18436;BME280;9346;52.006;4.720;2023-11-21T10:11:03;101673.34;;;11.56;100.00
18436;BME280;9346;52.006;4.720;2023-11-21T10:13:32;101690.38;;;11.48;100.00
18436;BME280;9346;52.006;4.720;2023-11-21T10:16:00;101688.41;;;11.44;100.00
18436;BME280;9346;52.006;4.720;2023-11-21T10:18:31;101699.16;;;11.45;100.00
18436;BME280;9346;52.006;4.720;2023-11-21T10:20:59;101697.47;;;11.44;100.00
18436;BME280;9346;52.006;4.720;2023-11-21T10:23:29;101704.16;;;11.48;100.00
18436;BME280;9346;52.006;4.720;2023-11-21T10:25:57;101707.81;;;11.54;100.00
18436;BME280;9346;52.006;4.720;2023-11-21T10:28:26;101716.34;;;11.52;100.00
18436;BME280;9346;52.006;4.720;2023-11-21T10:30:56;101717.19;;;11.53;100.00
18436;BME280;9346;52.006;4.720;2023-11-21T10:33:27;101729.31;;;11.52;100.00
18436;BME280;9346;52.006;4.720;2023-11-21T10:35:55;101722.91;;;11.46;100.00
18436;BME280;9346;52.006;4.720;2023-11-21T10:38:22;101728.16;;;11.48;100.00
18436;BME280;9346;52.006;4.720;2023-11-21T10:40:50;101729.88;;;11.54;100.00
18436;BME280;9346;52.006;4.720;2023-11-21T10:43:19;101732.56;;;11.49;100.00
18436;BME280;9346;52.006;4.720;2023-11-21T10:45:46;101747.22;;;11.49;100.00
18436;BME280;9346;52.006;4.720;2023-11-21T10:48:14;101746.38;;;11.49;100.00
18436;BME280;9346;52.006;4.720;2023-11-21T10:50:42;101742.78;;;11.48;100.00
18436;BME280;9346;52.006;4.720;2023-11-21T10:53:09;101741.94;;;11.48;100.00
18436;BME280;9346;52.006;4.720;2023-11-21T10:55:37;101760.16;;;11.49;100.00
18436;BME280;9346;52.006;4.720;2023-11-21T10:58:04;101752.16;;;11.47;100.00
18436;BME280;9346;52.006;4.720;2023-11-21T11:00:33;101755.50;;;11.49;100.00
18436;BME280;9346;52.006;4.720;2023-11-21T11:03:00;101752.22;;;11.52;100.00
18436;BME280;9346;52.006;4.720;2023-11-21T11:05:28;101758.88;;;11.56;100.00
18436;BME280;9346;52.006;4.720;2023-11-21T11:07:59;101759.72;;;11.57;100.00
18436;BME280;9346;52.006;4.720;2023-11-21T11:10:27;101763.03;;;11.59;100.00
18436;BME280;9346;52.006;4.720;2023-11-21T11:12:55;101759.78;;;11.62;100.00
18436;BME280;9346;52.006;4.720;2023-11-21T11:15:23;101761.13;;;11.59;100.00
18436;BME280;9346;52.006;4.720;2023-11-21T11:17:52;101764.25;;;11.63;100.00
18436;BME280;9346;52.006;4.720;2023-11-21T11:20:23;101768.41;;;11.65;100.00
18436;BME280;9346;52.006;4.720;2023-11-21T11:22:59;101760.63;;;11.62;100.00
18436;BME280;9346;52.006;4.720;2023-11-21T11:25:42;101760.88;;;11.61;100.00
18436;BME280;9346;52.006;4.720;2023-11-21T11:28:17;101755.59;;;11.59;100.00
18436;BME280;9346;52.006;4.720;2023-11-21T11:30:53;101752.53;;;11.56;100.00
18436;BME280;9346;52.006;4.720;2023-11-21T11:33:36;101768.56;;;11.59;100.00
18436;BME280;9346;52.006;4.720;2023-11-21T11:36:12;101759.47;;;11.58;100.00
18436;BME280;9346;52.006;4.720;2023-11-21T11:38:45;101774.03;;;11.54;100.00
18436;BME280;9346;52.006;4.720;2023-11-21T11:41:24;101763.84;;;11.54;100.00
18436;BME280;9346;52.006;4.720;2023-11-21T11:43:51;101771.59;;;11.57;100.00
18436;BME280;9346;52.006;4.720;2023-11-21T11:46:19;101772.66;;;11.56;100.00
18436;BME280;9346;52.006;4.720;2023-11-21T11:48:49;101778.72;;;11.53;100.00
18436;BME280;9346;52.006;4.720;2023-11-21T11:51:28;101772.13;;;11.54;100.00
18436;BME280;9346;52.006;4.720;2023-11-21T11:53:56;101775.91;;;11.48;100.00
18436;BME280;9346;52.006;4.720;2023-11-21T11:56:25;101778.34;;;11.45;100.00
18436;BME280;9346;52.006;4.720;2023-11-21T11:59:02;101783.00;;;11.44;100.00
18436;BME280;9346;52.006;4.720;2023-11-21T12:01:31;101778.06;;;11.46;100.00
18436;BME280;9346;52.006;4.720;2023-11-21T12:04:25;101791.28;;;11.44;100.00
18436;BME280;9346;52.006;4.720;2023-11-21T12:07:00;101803.75;;;11.47;100.00
18436;BME280;9346;52.006;4.720;2023-11-21T12:09:29;101799.63;;;11.49;100.00
18436;BME280;9346;52.006;4.720;2023-11-21T12:11:56;101817.94;;;11.55;100.00
18436;BME280;9346;52.006;4.720;2023-11-21T12:14:23;101808.81;;;11.55;100.00
18436;BME280;9346;52.006;4.720;2023-11-21T12:16:51;101809.13;;;11.58;100.00
18436;BME280;9346;52.006;4.720;2023-11-21T12:19:18;101812.41;;;11.55;100.00
18436;BME280;9346;52.006;4.720;2023-11-21T12:21:48;101821.78;;;11.54;100.00
18436;BME280;9346;52.006;4.720;2023-11-21T12:24:15;101818.34;;;11.47;100.00
18436;BME280;9346;52.006;4.720;2023-11-21T12:26:43;101815.81;;;11.41;100.00
18436;BME280;9346;52.006;4.720;2023-11-21T12:29:10;101822.94;;;11.37;100.00
18436;BME280;9346;52.006;4.720;2023-11-21T12:31:37;101828.44;;;11.37;100.00
18436;BME280;9346;52.006;4.720;2023-11-21T12:34:04;101829.47;;;11.30;100.00
18436;BME280;9346;52.006;4.720;2023-11-21T12:36:32;101828.56;;;11.25;100.00
18436;BME280;9346;52.006;4.720;2023-11-21T12:39:02;101837.66;;;11.25;100.00
18436;BME280;9346;52.006;4.720;2023-11-21T12:41:29;101848.53;;;11.32;100.00
18436;BME280;9346;52.006;4.720;2023-11-21T12:43:58;101845.16;;;11.30;100.00
18436;BME280;9346;52.006;4.720;2023-11-21T12:46:25;101851.53;;;11.30;100.00
18436;BME280;9346;52.006;4.720;2023-11-21T12:48:54;101849.94;;;11.34;100.00
18436;BME280;9346;52.006;4.720;2023-11-21T12:51:21;101849.09;;;11.34;100.00
18436;BME280;9346;52.006;4.720;2023-11-21T12:53:50;101861.56;;;11.37;100.00
18436;BME280;9346;52.006;4.720;2023-11-21T12:56:21;101857.50;;;11.44;100.00
18436;BME280;9346;52.006;4.720;2023-11-21T12:58:49;101853.66;;;11.45;100.00